createdAt,value
2022-12-04T00:00:45.906Z,77.38
2022-12-04T00:03:18.561Z,78.33
2022-12-04T00:05:51.133Z,77.56
2022-12-04T00:08:23.784Z,77.68
2022-12-04T00:10:56.282Z,77.44
2022-12-04T00:13:28.849Z,77.37
2022-12-04T00:16:04.849Z,77.89
2022-12-04T00:18:38.051Z,77.44
2022-12-04T00:21:13.372Z,77.54
2022-12-04T00:23:46.789Z,78.26
2022-12-04T00:26:23.799Z,77.89
2022-12-04T00:28:56.662Z,77.71
2022-12-04T00:31:31.384Z,77.36
2022-12-04T00:34:07.967Z,77.69
2022-12-04T00:36:40.962Z,77.21
2022-12-04T00:39:13.415Z,77.62
2022-12-04T00:41:45.890Z,77.63
2022-12-04T00:44:18.394Z,77.75
2022-12-04T00:46:50.928Z,77.49
2022-12-04T00:49:23.518Z,77.90
2022-12-04T00:51:56.274Z,78.47
2022-12-04T00:54:28.861Z,78.00
2022-12-04T00:57:01.417Z,78.11
2022-12-04T00:59:33.992Z,78.32
2022-12-04T01:02:06.627Z,78.21
2022-12-04T01:04:39.136Z,78.33
2022-12-04T01:07:11.608Z,77.68
2022-12-04T01:09:44.070Z,77.74
2022-12-04T01:12:20.696Z,77.90
2022-12-04T01:14:53.695Z,78.37
2022-12-04T01:17:26.968Z,78.46
2022-12-04T01:19:59.496Z,77.89
2022-12-04T01:22:32.016Z,78.52
2022-12-04T01:25:05.254Z,78.13
2022-12-04T01:27:37.835Z,77.80
2022-12-04T01:30:11.140Z,78.12
2022-12-04T01:32:43.674Z,77.88
2022-12-04T01:35:16.297Z,77.34
2022-12-04T01:37:48.834Z,77.60
2022-12-04T01:40:21.486Z,77.52
2022-12-04T01:42:54.025Z,77.55
2022-12-04T01:45:44.346Z,77.75
2022-12-04T01:48:27.403Z,77.55
2022-12-04T01:51:19.021Z,77.97
2022-12-04T01:54:10.452Z,78.15
2022-12-04T01:56:50.964Z,78.57
2022-12-04T01:59:31.937Z,77.56
2022-12-04T02:02:14.541Z,77.93
2022-12-04T02:04:48.906Z,78.21
2022-12-04T02:07:21.409Z,78.05
2022-12-04T02:09:56.260Z,78.07
2022-12-04T02:12:53.568Z,78.80
2022-12-04T02:15:46.002Z,78.49
2022-12-04T02:18:58.753Z,78.50
2022-12-04T02:21:43.177Z,77.99
2022-12-04T02:24:33.028Z,78.08
2022-12-04T02:27:16.828Z,78.12
2022-12-04T02:30:06.461Z,77.79
2022-12-04T02:32:48.436Z,78.03
2022-12-04T02:35:40.766Z,78.19
2022-12-04T02:39:05.110Z,78.28
2022-12-04T02:42:13.492Z,78.15
2022-12-04T02:44:57.327Z,78.62
2022-12-04T02:47:32.184Z,78.65
2022-12-04T02:50:12.897Z,78.10
2022-12-04T02:53:01.546Z,78.55
2022-12-04T02:55:43.629Z,77.82
2022-12-04T02:58:25.027Z,78.36
2022-12-04T03:01:02.590Z,78.91
2022-12-04T03:03:35.528Z,78.16
2022-12-04T03:06:13.959Z,77.70
2022-12-04T03:09:00.572Z,78.24
2022-12-04T03:11:37.617Z,77.99
2022-12-04T03:14:35.402Z,78.33
2022-12-04T03:17:25.294Z,78.30
2022-12-04T03:20:05.627Z,77.34
2022-12-04T03:22:44.069Z,78.14
2022-12-04T03:25:16.755Z,78.15
2022-12-04T03:28:10.925Z,78.82
2022-12-04T03:30:58.562Z,78.01
2022-12-04T03:33:45.024Z,77.58
2022-12-04T03:36:27.897Z,78.34
2022-12-04T03:39:22.894Z,78.95
2022-12-04T03:42:25.649Z,77.94
2022-12-04T03:45:22.321Z,78.59
2022-12-04T03:48:07.868Z,78.05
2022-12-04T03:50:51.988Z,78.11
2022-12-04T03:53:42.911Z,78.16
2022-12-04T03:56:28.384Z,77.40
2022-12-04T03:59:12.490Z,77.69
2022-12-04T04:01:49.614Z,78.16
2022-12-04T04:04:31.138Z,77.95
2022-12-04T04:07:15.844Z,78.69
2022-12-04T04:09:56.441Z,77.76
2022-12-04T04:12:38.620Z,78.68
2022-12-04T04:15:36.989Z,78.55
2022-12-04T04:18:28.294Z,79.06
2022-12-04T04:21:20.589Z,77.50
2022-12-04T04:24:11.863Z,78.05
2022-12-04T04:26:49.917Z,77.74
2022-12-04T04:29:22.467Z,78.04
2022-12-04T04:32:08.448Z,78.09
2022-12-04T04:34:54.137Z,77.93
2022-12-04T04:37:46.457Z,78.78
2022-12-04T04:40:30.480Z,78.25
2022-12-04T04:43:13.871Z,77.96
2022-12-04T04:45:52.352Z,78.37
2022-12-04T04:48:49.235Z,78.63
2022-12-04T04:51:22.520Z,78.31
2022-12-04T04:54:00.182Z,78.37
2022-12-04T04:56:39.170Z,78.14
2022-12-04T04:59:12.487Z,78.82
2022-12-04T05:01:47.063Z,78.24
2022-12-04T05:04:19.766Z,78.24
2022-12-04T05:06:52.252Z,77.69
2022-12-04T05:09:24.783Z,78.07
2022-12-04T05:11:57.272Z,77.61
2022-12-04T05:14:29.709Z,77.34
2022-12-04T05:17:10.840Z,77.72
2022-12-04T05:19:54.850Z,78.61
2022-12-04T05:22:33.044Z,78.21
2022-12-04T05:25:05.990Z,78.43
2022-12-04T05:27:38.591Z,78.36
2022-12-04T05:30:12.048Z,77.77
2022-12-04T05:32:44.587Z,78.02
2022-12-04T05:35:17.508Z,78.63
2022-12-04T05:37:50.095Z,78.54
2022-12-04T05:40:22.796Z,77.98
2022-12-04T05:42:55.240Z,77.98
2022-12-04T05:45:27.795Z,78.15
2022-12-04T05:48:00.388Z,78.65
2022-12-04T05:50:32.908Z,78.03
2022-12-04T05:53:05.473Z,78.63
2022-12-04T05:55:38.163Z,78.26
2022-12-04T05:58:10.950Z,78.79
2022-12-04T06:00:43.437Z,78.67
2022-12-04T06:03:16.289Z,78.35
2022-12-04T06:05:48.931Z,77.85
2022-12-04T06:08:21.628Z,77.79
2022-12-04T06:10:54.295Z,78.28
2022-12-04T06:13:26.827Z,77.72
2022-12-04T06:15:59.400Z,78.42
2022-12-04T06:18:31.972Z,78.57
2022-12-04T06:21:04.616Z,78.83
2022-12-04T06:23:37.348Z,78.04
2022-12-04T06:26:10.019Z,77.72
2022-12-04T06:28:42.647Z,77.76
2022-12-04T06:31:19.094Z,78.22
2022-12-04T06:33:55.099Z,78.95
2022-12-04T06:36:27.858Z,78.84
2022-12-04T06:39:00.470Z,78.35
2022-12-04T06:41:33.237Z,78.33
2022-12-04T06:44:05.806Z,78.29
2022-12-04T06:46:43.536Z,78.18
2022-12-04T06:49:22.655Z,79.94
2022-12-04T06:51:55.191Z,78.77
2022-12-04T06:54:27.719Z,79.70
2022-12-04T06:57:00.306Z,78.69
2022-12-04T06:59:33.858Z,77.60
2022-12-04T07:02:06.767Z,78.38
2022-12-04T07:04:39.392Z,77.96
2022-12-04T07:07:12.219Z,78.49
2022-12-04T07:09:46.833Z,78.68
2022-12-04T07:12:19.350Z,78.54
2022-12-04T07:14:52.036Z,78.97
2022-12-04T07:17:24.633Z,78.21
2022-12-04T07:19:57.450Z,78.38
2022-12-04T07:22:30.228Z,78.50
2022-12-04T07:25:03.072Z,79.15
2022-12-04T07:27:35.584Z,78.91
2022-12-04T07:30:15.385Z,78.37
2022-12-04T07:32:48.301Z,78.49
2022-12-04T07:35:20.856Z,78.00
2022-12-04T07:37:53.369Z,78.18
2022-12-04T07:40:26.053Z,79.13
2022-12-04T07:42:58.732Z,78.93
2022-12-04T07:45:31.265Z,78.81
2022-12-04T07:48:04.104Z,78.67
2022-12-04T07:50:36.635Z,78.20
2022-12-04T07:53:09.416Z,78.43
2022-12-04T07:55:42.531Z,78.60
2022-12-04T07:58:15.050Z,77.90
2022-12-04T08:00:47.535Z,78.80
2022-12-04T08:03:20.165Z,78.70
2022-12-04T08:05:52.913Z,78.09
2022-12-04T08:08:25.352Z,78.15
2022-12-04T08:10:59.166Z,78.56
2022-12-04T08:13:31.638Z,78.37
2022-12-04T08:16:08.169Z,78.45
2022-12-04T08:18:41.556Z,77.76
2022-12-04T08:21:20.801Z,78.39
2022-12-04T08:23:56.964Z,77.56
2022-12-04T08:26:31.369Z,77.65
2022-12-04T08:29:05.004Z,77.23
2022-12-04T08:31:37.632Z,76.75
2022-12-04T08:34:10.348Z,77.29
2022-12-04T08:36:42.929Z,76.47
2022-12-04T08:39:15.468Z,76.42
2022-12-04T08:41:52.369Z,76.67
2022-12-04T08:44:27.893Z,76.46
2022-12-04T08:47:00.449Z,76.44
2022-12-04T08:49:33.110Z,76.69
2022-12-04T08:52:05.664Z,76.54
2022-12-04T08:54:38.242Z,75.74
2022-12-04T08:57:10.716Z,76.20
2022-12-04T08:59:43.164Z,76.21
2022-12-04T09:02:16.649Z,75.45
2022-12-04T09:04:49.210Z,75.96
2022-12-04T09:07:21.821Z,75.71
2022-12-04T09:09:54.371Z,75.15
2022-12-04T09:12:26.977Z,75.63
2022-12-04T09:14:59.548Z,75.95
2022-12-04T09:17:32.200Z,75.03
2022-12-04T09:20:08.048Z,75.30
2022-12-04T09:23:02.860Z,75.60
2022-12-04T09:25:37.911Z,75.16
2022-12-04T09:28:10.426Z,75.29
2022-12-04T09:30:43.074Z,75.08
2022-12-04T09:33:15.559Z,74.27
2022-12-04T09:35:48.023Z,74.23
2022-12-04T09:38:21.296Z,74.58
2022-12-04T09:41:10.793Z,74.13
2022-12-04T09:44:04.159Z,74.21
2022-12-04T09:46:51.444Z,73.44
2022-12-04T09:49:34.647Z,74.00
2022-12-04T09:52:44.429Z,74.47
2022-12-04T09:55:32.824Z,75.23
2022-12-04T09:58:13.786Z,73.92
2022-12-04T10:00:50.766Z,74.45
2022-12-04T10:03:30.270Z,74.52
2022-12-04T10:06:14.302Z,74.25
2022-12-04T10:09:03.742Z,75.10
2022-12-04T10:11:42.061Z,74.93
2022-12-04T10:14:26.697Z,74.32
2022-12-04T10:17:32.390Z,74.97
2022-12-04T10:21:17.240Z,74.78
2022-12-04T10:24:10.564Z,74.48
2022-12-04T10:26:48.559Z,74.98
2022-12-04T10:29:29.504Z,75.30
2022-12-04T10:32:42.669Z,75.57
2022-12-04T10:35:32.364Z,75.25
2022-12-04T10:38:33.344Z,75.00
2022-12-04T10:41:28.985Z,74.87
2022-12-04T10:44:01.658Z,75.34
2022-12-04T10:46:35.691Z,75.23
2022-12-04T10:49:20.741Z,75.77
2022-12-04T10:51:54.650Z,74.86
2022-12-04T10:54:50.767Z,75.91
2022-12-04T10:57:36.074Z,75.21
2022-12-04T11:00:33.737Z,75.71
2022-12-04T11:03:24.795Z,75.67
2022-12-04T11:06:05.220Z,75.56
2022-12-04T11:08:49.988Z,75.45
2022-12-04T11:11:35.173Z,75.68
2022-12-04T11:14:17.606Z,75.08
2022-12-04T11:17:05.632Z,75.52
2022-12-04T11:19:38.208Z,75.17
2022-12-04T11:22:19.900Z,76.16
2022-12-04T11:24:58.847Z,76.02
2022-12-04T11:27:36.531Z,75.75
2022-12-04T11:30:21.750Z,75.95
2022-12-04T11:32:55.033Z,76.21
2022-12-04T11:35:30.499Z,76.16
2022-12-04T11:38:17.594Z,75.10
2022-12-04T11:40:57.480Z,75.77
2022-12-04T11:43:33.555Z,74.56
2022-12-04T11:46:06.895Z,75.90
2022-12-04T11:48:46.049Z,76.08
2022-12-04T11:51:50.681Z,75.46
2022-12-04T11:54:29.102Z,76.40
2022-12-04T11:57:26.784Z,75.87
2022-12-04T12:00:23.793Z,75.63
2022-12-04T12:03:37.666Z,75.04
2022-12-04T12:06:23.876Z,75.78
2022-12-04T12:10:05.807Z,75.51
2022-12-04T12:13:59.314Z,75.89
2022-12-04T12:17:02.632Z,75.10
2022-12-04T12:19:58.351Z,75.17
2022-12-04T12:22:58.327Z,75.26
2022-12-04T12:25:54.132Z,76.06
2022-12-04T12:28:36.597Z,75.96
2022-12-04T12:31:54.498Z,75.42
2022-12-04T12:34:43.202Z,75.37
2022-12-04T12:37:29.860Z,75.54
2022-12-04T12:40:22.972Z,75.38
2022-12-04T12:43:02.771Z,75.58
2022-12-04T12:45:40.343Z,75.51
2022-12-04T12:48:29.952Z,74.93
2022-12-04T12:51:29.981Z,75.90
2022-12-04T12:54:39.178Z,75.33
2022-12-04T12:57:34.717Z,75.19
2022-12-04T13:00:17.224Z,75.87
2022-12-04T13:03:02.912Z,75.10
2022-12-04T13:05:48.758Z,75.33
2022-12-04T13:09:05.798Z,76.18
2022-12-04T13:11:40.322Z,75.39
2022-12-04T13:14:14.422Z,76.00
2022-12-04T13:16:54.029Z,75.46
2022-12-04T13:19:35.568Z,75.81
2022-12-04T13:22:21.992Z,75.46
2022-12-04T13:25:07.056Z,76.21
2022-12-04T13:28:10.952Z,75.34
2022-12-04T13:30:54.041Z,75.85
2022-12-04T13:34:07.810Z,75.94
2022-12-04T13:37:12.484Z,75.82
2022-12-04T13:40:38.565Z,76.32
2022-12-04T13:43:27.616Z,75.87
2022-12-04T13:46:06.266Z,75.65
2022-12-04T13:48:42.998Z,75.60
2022-12-04T13:51:39.807Z,76.06
2022-12-04T13:54:12.272Z,75.76
2022-12-04T13:56:50.033Z,75.82
2022-12-04T13:59:28.614Z,76.07
2022-12-04T14:02:20.866Z,75.96
2022-12-04T14:05:04.602Z,75.95
2022-12-04T14:07:41.880Z,74.81
2022-12-04T14:10:14.343Z,75.77
2022-12-04T14:13:01.945Z,75.75
2022-12-04T14:15:38.026Z,75.37
2022-12-04T14:18:13.940Z,75.80
2022-12-04T14:21:01.064Z,75.76
2022-12-04T14:23:38.608Z,76.13
2022-12-04T14:26:37.380Z,75.56
2022-12-04T14:29:47.451Z,76.19
2022-12-04T14:32:30.714Z,75.92
2022-12-04T14:35:04.059Z,75.81
2022-12-04T14:37:44.714Z,76.24
2022-12-04T14:40:28.418Z,75.62
2022-12-04T14:43:00.924Z,76.05
2022-12-04T14:45:52.653Z,75.81
2022-12-04T14:49:00.377Z,76.66
2022-12-04T14:51:41.638Z,75.91
2022-12-04T14:54:55.103Z,75.37
2022-12-04T14:58:30.643Z,76.37
2022-12-04T15:01:40.695Z,75.85
2022-12-04T15:04:23.318Z,75.92
2022-12-04T15:07:00.419Z,76.16
2022-12-04T15:09:51.925Z,75.68
2022-12-04T15:12:34.775Z,76.16
2022-12-04T15:15:25.011Z,76.51
2022-12-04T15:18:24.219Z,76.72
2022-12-04T15:21:00.767Z,77.31
2022-12-04T15:23:41.642Z,77.08
2022-12-04T15:26:20.947Z,77.01
2022-12-04T15:29:01.280Z,77.25
2022-12-04T15:31:59.501Z,77.39
2022-12-04T15:34:46.126Z,78.15
2022-12-04T15:37:30.115Z,77.47
2022-12-04T17:15:58.851Z,77.78
2022-12-04T17:18:31.359Z,77.17
2022-12-04T17:21:10.063Z,77.88
2022-12-04T17:23:43.100Z,77.66
2022-12-04T17:26:15.737Z,77.51
2022-12-04T17:28:51.806Z,77.51
2022-12-04T17:31:26.699Z,77.83
2022-12-04T17:33:59.272Z,77.35
2022-12-04T17:36:31.779Z,77.81
2022-12-04T17:39:04.362Z,77.64
2022-12-04T17:41:37.167Z,77.90
2022-12-04T17:44:10.719Z,77.65
2022-12-04T17:46:43.276Z,77.56
2022-12-04T17:49:15.863Z,77.50
2022-12-04T17:51:48.373Z,77.66
2022-12-04T17:54:20.913Z,77.76
2022-12-04T17:56:57.745Z,76.82
2022-12-04T17:59:30.717Z,77.58
2022-12-04T18:02:03.233Z,77.35
2022-12-04T18:04:35.713Z,77.38
2022-12-04T18:07:08.914Z,77.51
2022-12-04T18:09:41.447Z,77.36
2022-12-04T18:12:14.621Z,77.35
2022-12-04T18:14:47.109Z,76.84
2022-12-04T18:17:20.843Z,76.83
2022-12-04T18:19:53.444Z,76.81
2022-12-04T18:22:26.027Z,76.73
2022-12-04T18:24:58.550Z,76.65
2022-12-04T18:27:31.249Z,77.05
2022-12-04T18:30:04.176Z,77.86
2022-12-04T18:32:36.683Z,77.08
2022-12-04T18:35:09.410Z,76.66
2022-12-04T18:37:41.918Z,77.77
2022-12-04T18:40:14.692Z,78.40
2022-12-04T18:42:47.220Z,78.48
2022-12-04T18:45:22.106Z,77.52
2022-12-04T18:47:54.612Z,77.18
2022-12-04T18:50:29.466Z,77.55
2022-12-04T18:53:01.977Z,77.70
2022-12-04T18:55:36.688Z,77.63
2022-12-04T18:58:09.193Z,78.57
2022-12-04T19:00:42.056Z,77.55
2022-12-04T19:03:14.728Z,77.96
2022-12-04T19:05:50.775Z,78.64
2022-12-04T19:08:24.672Z,77.91
2022-12-04T19:11:11.904Z,78.57
2022-12-04T19:13:44.412Z,77.46
2022-12-04T19:16:18.609Z,77.91
2022-12-04T19:18:51.569Z,78.82
2022-12-04T19:21:24.920Z,78.31
2022-12-04T19:24:00.124Z,78.50
2022-12-04T19:26:35.202Z,79.07
2022-12-04T19:29:08.005Z,78.09
2022-12-04T19:31:41.029Z,78.49
2022-12-04T19:34:13.651Z,78.35
2022-12-04T19:36:47.220Z,78.98
2022-12-04T19:39:19.825Z,79.44
2022-12-04T19:41:52.809Z,79.11
2022-12-04T19:44:47.741Z,78.87
2022-12-04T19:47:18.990Z,78.67
2022-12-04T19:49:51.551Z,79.06
2022-12-04T19:52:24.116Z,79.56
2022-12-04T19:54:56.689Z,79.75
2022-12-04T19:57:29.249Z,79.10
2022-12-04T20:00:02.470Z,79.52
2022-12-04T20:02:36.569Z,80.22
2022-12-04T20:05:09.311Z,79.05
2022-12-04T20:07:41.940Z,79.27
2022-12-04T20:10:14.515Z,78.82
2022-12-04T20:12:47.083Z,79.24
2022-12-04T20:15:19.634Z,79.36
2022-12-04T20:17:53.281Z,78.82
2022-12-04T20:20:25.801Z,78.84
2022-12-04T20:22:58.293Z,79.26
2022-12-04T20:25:30.769Z,78.49
2022-12-04T20:28:03.403Z,78.85
2022-12-04T20:30:36.006Z,78.63
2022-12-04T20:33:09.719Z,78.84
2022-12-04T20:35:42.296Z,78.88
2022-12-04T20:38:15.064Z,79.42
2022-12-04T20:40:48.065Z,78.55
2022-12-04T20:43:20.687Z,78.30
2022-12-04T20:45:53.292Z,78.98
2022-12-04T20:48:28.757Z,78.93
2022-12-04T20:51:01.593Z,78.64
2022-12-04T20:53:34.140Z,78.86
2022-12-04T20:56:07.542Z,78.59
2022-12-04T20:58:41.129Z,78.55
2022-12-04T21:01:17.526Z,79.12
2022-12-04T21:03:51.304Z,79.81
2022-12-04T21:06:34.891Z,79.56
2022-12-04T21:09:15.302Z,78.67
2022-12-04T21:11:51.856Z,78.44
2022-12-04T21:14:49.801Z,79.19
2022-12-04T21:17:23.524Z,79.01
2022-12-04T21:19:56.211Z,79.06
2022-12-04T21:22:28.944Z,79.45
2022-12-04T21:25:03.122Z,79.94
2022-12-04T21:27:35.876Z,79.16
2022-12-04T21:30:10.488Z,79.46
2022-12-04T21:32:43.010Z,80.01
2022-12-04T21:35:15.506Z,80.12
2022-12-04T21:37:48.112Z,79.76
2022-12-04T21:40:20.629Z,80.33
2022-12-04T21:42:55.790Z,80.09
2022-12-04T21:45:28.536Z,79.77
2022-12-04T21:48:01.063Z,79.48
2022-12-04T21:50:34.586Z,79.41
2022-12-04T21:53:07.150Z,79.90
2022-12-04T21:55:45.631Z,80.29
2022-12-04T21:58:20.180Z,80.69
2022-12-04T22:00:52.993Z,81.74
2022-12-04T22:03:25.672Z,81.51
2022-12-04T22:06:00.506Z,81.24
2022-12-04T22:08:37.181Z,81.58
2022-12-04T22:11:12.233Z,81.21
2022-12-04T22:13:44.991Z,81.08
2022-12-04T22:16:19.165Z,81.11
2022-12-04T22:18:57.873Z,81.00
2022-12-04T22:21:30.615Z,80.24
2022-12-04T22:24:05.000Z,80.96
2022-12-04T22:26:38.623Z,82.18
2022-12-04T22:29:48.048Z,81.88
2022-12-04T22:32:03.875Z,81.99
2022-12-04T22:34:36.480Z,82.74
2022-12-04T22:37:09.004Z,82.21
2022-12-04T22:39:41.518Z,83.25
2022-12-04T22:42:13.999Z,82.19
2022-12-04T22:44:46.662Z,82.99
2022-12-04T22:47:19.132Z,82.43
2022-12-04T22:49:51.724Z,83.31
2022-12-04T22:52:24.317Z,83.19
2022-12-04T22:54:56.876Z,83.23
2022-12-04T22:57:29.439Z,82.57
2022-12-04T23:00:02.114Z,82.38
2022-12-04T23:02:34.851Z,83.10
2022-12-04T23:05:07.546Z,83.55
2022-12-04T23:07:40.120Z,82.69
2022-12-04T23:10:12.668Z,82.91
2022-12-04T23:12:45.130Z,82.64
2022-12-04T23:15:18.083Z,83.12
2022-12-04T23:17:50.602Z,83.32
2022-12-04T23:20:23.079Z,83.13
2022-12-04T23:22:56.119Z,83.31
2022-12-04T23:25:28.577Z,83.64
2022-12-04T23:28:01.158Z,83.33
2022-12-04T23:30:36.538Z,83.25
2022-12-04T23:33:09.329Z,82.81
2022-12-04T23:35:41.841Z,83.54
2022-12-04T23:38:14.390Z,82.72
2022-12-04T23:40:47.935Z,82.99
2022-12-04T23:43:20.519Z,83.93
2022-12-04T23:45:52.999Z,82.86
2022-12-04T23:48:25.612Z,82.79
2022-12-04T23:50:58.141Z,83.24
2022-12-04T23:53:30.655Z,82.19
2022-12-04T23:56:10.582Z,82.54
2022-12-04T23:58:46.557Z,82.72
